sensor_id;sensor_type;location;lat;lon;timestamp;temperature;humidity
67897;DHT22;54698;48.428;9.964;2022-09-09T00:02:18;13.70;99.90
67897;DHT22;54698;48.428;9.964;2022-09-09T00:04:55;13.40;99.90
67897;DHT22;54698;48.428;9.964;2022-09-09T00:07:33;13.00;99.90
67897;DHT22;54698;48.428;9.964;2022-09-09T00:10:11;12.90;99.90
67897;DHT22;54698;48.428;9.964;2022-09-09T00:12:48;13.00;99.90
67897;DHT22;54698;48.428;9.964;2022-09-09T00:15:20;13.10;99.90
67897;DHT22;54698;48.428;9.964;2022-09-09T00:17:52;13.10;99.90
67897;DHT22;54698;48.428;9.964;2022-09-09T00:20:23;13.10;99.90
67897;DHT22;54698;48.428;9.964;2022-09-09T00:22:53;13.30;99.90
67897;DHT22;54698;48.428;9.964;2022-09-09T00:25:26;13.40;99.90
67897;DHT22;54698;48.428;9.964;2022-09-09T00:27:56;13.40;99.90
67897;DHT22;54698;48.428;9.964;2022-09-09T00:30:23;13.40;99.90
67897;DHT22;54698;48.428;9.964;2022-09-09T00:32:54;13.40;99.90
67897;DHT22;54698;48.428;9.964;2022-09-09T00:35:23;13.50;99.90
67897;DHT22;54698;48.428;9.964;2022-09-09T00:37:53;13.50;99.90
67897;DHT22;54698;48.428;9.964;2022-09-09T00:40:29;13.60;99.90
67897;DHT22;54698;48.428;9.964;2022-09-09T00:43:12;13.60;99.90
67897;DHT22;54698;48.428;9.964;2022-09-09T00:49:00;13.60;99.90
67897;DHT22;54698;48.428;9.964;2022-09-09T00:51:36;13.60;99.90
67897;DHT22;54698;48.428;9.964;2022-09-09T00:54:22;13.60;99.90
67897;DHT22;54698;48.428;9.964;2022-09-09T00:57:00;13.50;99.90
67897;DHT22;54698;48.428;9.964;2022-09-09T00:59:37;13.50;99.90
67897;DHT22;54698;48.428;9.964;2022-09-09T01:02:19;13.40;99.90
67897;DHT22;54698;48.428;9.964;2022-09-09T01:04:52;13.10;99.90
67897;DHT22;54698;48.428;9.964;2022-09-09T01:07:18;12.90;99.90
67897;DHT22;54698;48.428;9.964;2022-09-09T01:09:54;12.90;99.90
67897;DHT22;54698;48.428;9.964;2022-09-09T01:12:28;12.90;99.90
67897;DHT22;54698;48.428;9.964;2022-09-09T01:15:07;12.90;99.90
67897;DHT22;54698;48.428;9.964;2022-09-09T01:17:44;13.00;99.90
67897;DHT22;54698;48.428;9.964;2022-09-09T01:20:18;13.00;99.90
67897;DHT22;54698;48.428;9.964;2022-09-09T01:22:50;13.10;99.90
67897;DHT22;54698;48.428;9.964;2022-09-09T01:25:29;13.00;99.90
67897;DHT22;54698;48.428;9.964;2022-09-09T01:27:59;13.00;99.90
67897;DHT22;54698;48.428;9.964;2022-09-09T01:30:27;12.90;99.90
67897;DHT22;54698;48.428;9.964;2022-09-09T01:32:55;12.90;99.90
67897;DHT22;54698;48.428;9.964;2022-09-09T01:35:37;12.90;99.90
67897;DHT22;54698;48.428;9.964;2022-09-09T01:38:08;12.70;99.90
67897;DHT22;54698;48.428;9.964;2022-09-09T01:40:34;12.30;99.90
67897;DHT22;54698;48.428;9.964;2022-09-09T01:43:02;12.00;99.90
67897;DHT22;54698;48.428;9.964;2022-09-09T01:45:29;11.80;99.90
67897;DHT22;54698;48.428;9.964;2022-09-09T01:47:56;11.50;99.90
67897;DHT22;54698;48.428;9.964;2022-09-09T01:50:22;11.20;99.90
67897;DHT22;54698;48.428;9.964;2022-09-09T01:52:50;11.00;99.90
67897;DHT22;54698;48.428;9.964;2022-09-09T01:55:22;10.70;99.90
67897;DHT22;54698;48.428;9.964;2022-09-09T01:58:03;10.60;99.90
67897;DHT22;54698;48.428;9.964;2022-09-09T02:00:37;10.50;99.90
67897;DHT22;54698;48.428;9.964;2022-09-09T02:03:14;10.60;99.90
67897;DHT22;54698;48.428;9.964;2022-09-09T02:05:50;10.90;99.90
67897;DHT22;54698;48.428;9.964;2022-09-09T02:08:22;11.20;99.90
67897;DHT22;54698;48.428;9.964;2022-09-09T02:10:55;11.40;99.90
67897;DHT22;54698;48.428;9.964;2022-09-09T02:13:25;11.70;99.90
67897;DHT22;54698;48.428;9.964;2022-09-09T02:15:53;11.90;99.90
67897;DHT22;54698;48.428;9.964;2022-09-09T02:18:25;12.10;99.90
67897;DHT22;54698;48.428;9.964;2022-09-09T02:20:53;12.00;99.90
67897;DHT22;54698;48.428;9.964;2022-09-09T02:23:19;11.70;99.90
67897;DHT22;54698;48.428;9.964;2022-09-09T02:25:46;11.30;99.90
67897;DHT22;54698;48.428;9.964;2022-09-09T02:28:14;11.00;99.90
67897;DHT22;54698;48.428;9.964;2022-09-09T02:30:45;10.70;99.90
67897;DHT22;54698;48.428;9.964;2022-09-09T02:33:12;10.60;99.90
67897;DHT22;54698;48.428;9.964;2022-09-09T02:35:40;10.50;99.90
67897;DHT22;54698;48.428;9.964;2022-09-09T02:38:11;10.50;99.90
67897;DHT22;54698;48.428;9.964;2022-09-09T02:40:38;10.40;99.90
67897;DHT22;54698;48.428;9.964;2022-09-09T02:43:04;10.40;99.90
67897;DHT22;54698;48.428;9.964;2022-09-09T02:45:36;10.40;99.90
67897;DHT22;54698;48.428;9.964;2022-09-09T02:48:12;10.40;99.90
67897;DHT22;54698;48.428;9.964;2022-09-09T02:50:46;10.30;99.90
67897;DHT22;54698;48.428;9.964;2022-09-09T02:53:18;10.30;99.90
67897;DHT22;54698;48.428;9.964;2022-09-09T02:55:48;10.30;99.90
67897;DHT22;54698;48.428;9.964;2022-09-09T02:58:18;10.40;99.90
67897;DHT22;54698;48.428;9.964;2022-09-09T03:00:47;10.50;99.90
67897;DHT22;54698;48.428;9.964;2022-09-09T03:03:15;10.60;99.90
67897;DHT22;54698;48.428;9.964;2022-09-09T03:05:42;10.80;99.90
67897;DHT22;54698;48.428;9.964;2022-09-09T03:08:08;10.90;99.90
67897;DHT22;54698;48.428;9.964;2022-09-09T03:10:34;10.90;99.90
67897;DHT22;54698;48.428;9.964;2022-09-09T03:13:00;10.90;99.90
67897;DHT22;54698;48.428;9.964;2022-09-09T03:15:27;10.80;99.90
67897;DHT22;54698;48.428;9.964;2022-09-09T03:17:53;10.80;99.90
67897;DHT22;54698;48.428;9.964;2022-09-09T03:20:20;10.80;99.90
67897;DHT22;54698;48.428;9.964;2022-09-09T03:22:46;10.80;99.90
67897;DHT22;54698;48.428;9.964;2022-09-09T03:25:12;10.80;99.90
67897;DHT22;54698;48.428;9.964;2022-09-09T03:27:38;10.90;99.90
67897;DHT22;54698;48.428;9.964;2022-09-09T03:30:04;11.00;99.90
67897;DHT22;54698;48.428;9.964;2022-09-09T03:32:31;11.20;99.90
67897;DHT22;54698;48.428;9.964;2022-09-09T03:34:57;11.50;99.90
67897;DHT22;54698;48.428;9.964;2022-09-09T03:37:24;11.70;99.90
67897;DHT22;54698;48.428;9.964;2022-09-09T03:39:50;12.00;99.90
67897;DHT22;54698;48.428;9.964;2022-09-09T03:42:16;12.30;99.90
67897;DHT22;54698;48.428;9.964;2022-09-09T03:44:42;12.60;99.90
67897;DHT22;54698;48.428;9.964;2022-09-09T03:47:07;12.90;99.90
67897;DHT22;54698;48.428;9.964;2022-09-09T03:49:33;13.10;99.90
67897;DHT22;54698;48.428;9.964;2022-09-09T03:51:59;13.30;99.90
67897;DHT22;54698;48.428;9.964;2022-09-09T03:54:26;13.40;99.90
67897;DHT22;54698;48.428;9.964;2022-09-09T03:56:52;13.50;99.90
67897;DHT22;54698;48.428;9.964;2022-09-09T03:59:18;13.50;99.90
67897;DHT22;54698;48.428;9.964;2022-09-09T04:01:44;13.40;99.90
67897;DHT22;54698;48.428;9.964;2022-09-09T04:04:10;13.20;99.90
67897;DHT22;54698;48.428;9.964;2022-09-09T04:06:36;13.10;99.90
67897;DHT22;54698;48.428;9.964;2022-09-09T04:09:02;13.00;99.90
67897;DHT22;54698;48.428;9.964;2022-09-09T04:11:29;12.90;99.90
67897;DHT22;54698;48.428;9.964;2022-09-09T04:13:55;12.90;99.90
67897;DHT22;54698;48.428;9.964;2022-09-09T04:16:21;12.60;99.90
67897;DHT22;54698;48.428;9.964;2022-09-09T04:18:47;12.00;99.90
67897;DHT22;54698;48.428;9.964;2022-09-09T04:21:12;11.70;99.90
67897;DHT22;54698;48.428;9.964;2022-09-09T04:23:38;11.60;99.90
67897;DHT22;54698;48.428;9.964;2022-09-09T04:26:05;11.60;99.90
67897;DHT22;54698;48.428;9.964;2022-09-09T04:28:34;11.50;99.90
67897;DHT22;54698;48.428;9.964;2022-09-09T04:31:05;11.30;99.90
67897;DHT22;54698;48.428;9.964;2022-09-09T04:33:32;11.20;99.90
67897;DHT22;54698;48.428;9.964;2022-09-09T04:35:58;11.10;99.90
67897;DHT22;54698;48.428;9.964;2022-09-09T04:38:23;11.10;99.90
67897;DHT22;54698;48.428;9.964;2022-09-09T04:40:51;11.00;99.90
67897;DHT22;54698;48.428;9.964;2022-09-09T04:43:17;11.00;99.90
67897;DHT22;54698;48.428;9.964;2022-09-09T04:45:47;11.10;99.90
67897;DHT22;54698;48.428;9.964;2022-09-09T04:48:14;11.10;99.90
67897;DHT22;54698;48.428;9.964;2022-09-09T04:50:39;11.40;99.90
67897;DHT22;54698;48.428;9.964;2022-09-09T04:53:05;11.70;99.90
67897;DHT22;54698;48.428;9.964;2022-09-09T04:55:32;11.90;99.90
67897;DHT22;54698;48.428;9.964;2022-09-09T04:58:03;12.10;99.90
67897;DHT22;54698;48.428;9.964;2022-09-09T05:00:29;12.30;99.90
67897;DHT22;54698;48.428;9.964;2022-09-09T05:02:56;12.40;99.90
67897;DHT22;54698;48.428;9.964;2022-09-09T05:05:22;12.50;99.90
67897;DHT22;54698;48.428;9.964;2022-09-09T05:07:48;12.60;99.90
67897;DHT22;54698;48.428;9.964;2022-09-09T05:10:14;12.70;99.90
67897;DHT22;54698;48.428;9.964;2022-09-09T05:12:40;12.70;99.90
67897;DHT22;54698;48.428;9.964;2022-09-09T05:15:08;12.80;99.90
67897;DHT22;54698;48.428;9.964;2022-09-09T05:17:34;12.80;99.90
67897;DHT22;54698;48.428;9.964;2022-09-09T05:20:02;12.90;99.90
67897;DHT22;54698;48.428;9.964;2022-09-09T05:22:28;12.90;99.90
67897;DHT22;54698;48.428;9.964;2022-09-09T05:24:54;12.90;99.90
67897;DHT22;54698;48.428;9.964;2022-09-09T05:27:20;12.90;99.90
67897;DHT22;54698;48.428;9.964;2022-09-09T05:29:46;13.00;99.90
67897;DHT22;54698;48.428;9.964;2022-09-09T05:32:11;13.00;99.90
67897;DHT22;54698;48.428;9.964;2022-09-09T05:34:37;13.00;99.90
67897;DHT22;54698;48.428;9.964;2022-09-09T05:37:05;13.00;99.90
67897;DHT22;54698;48.428;9.964;2022-09-09T05:39:30;13.10;99.90
67897;DHT22;54698;48.428;9.964;2022-09-09T05:41:56;13.10;99.90
67897;DHT22;54698;48.428;9.964;2022-09-09T05:44:22;13.20;99.90
67897;DHT22;54698;48.428;9.964;2022-09-09T05:46:48;13.20;99.90
67897;DHT22;54698;48.428;9.964;2022-09-09T05:49:13;13.30;99.90
67897;DHT22;54698;48.428;9.964;2022-09-09T05:51:39;13.30;99.90
67897;DHT22;54698;48.428;9.964;2022-09-09T05:54:06;13.40;99.90
67897;DHT22;54698;48.428;9.964;2022-09-09T05:56:32;13.40;99.90
67897;DHT22;54698;48.428;9.964;2022-09-09T05:58:58;13.40;99.90
67897;DHT22;54698;48.428;9.964;2022-09-09T06:01:25;13.50;99.90
67897;DHT22;54698;48.428;9.964;2022-09-09T06:03:52;13.50;99.90
67897;DHT22;54698;48.428;9.964;2022-09-09T06:06:19;13.50;99.90
67897;DHT22;54698;48.428;9.964;2022-09-09T06:08:47;13.50;99.90
67897;DHT22;54698;48.428;9.964;2022-09-09T06:11:16;13.60;99.90
67897;DHT22;54698;48.428;9.964;2022-09-09T06:13:43;13.50;99.90
67897;DHT22;54698;48.428;9.964;2022-09-09T06:16:09;13.60;99.90
67897;DHT22;54698;48.428;9.964;2022-09-09T06:18:36;13.60;99.90
67897;DHT22;54698;48.428;9.964;2022-09-09T06:21:03;13.60;99.90
67897;DHT22;54698;48.428;9.964;2022-09-09T06:23:34;13.50;99.90
67897;DHT22;54698;48.428;9.964;2022-09-09T06:26:04;13.50;99.90
67897;DHT22;54698;48.428;9.964;2022-09-09T06:28:34;13.40;99.90
67897;DHT22;54698;48.428;9.964;2022-09-09T06:31:01;13.40;99.90
67897;DHT22;54698;48.428;9.964;2022-09-09T06:33:31;13.40;99.90
67897;DHT22;54698;48.428;9.964;2022-09-09T06:35:57;13.40;99.90
67897;DHT22;54698;48.428;9.964;2022-09-09T06:38:23;13.40;99.90
67897;DHT22;54698;48.428;9.964;2022-09-09T06:40:52;13.50;99.90
67897;DHT22;54698;48.428;9.964;2022-09-09T06:43:19;13.60;99.90
67897;DHT22;54698;48.428;9.964;2022-09-09T06:45:54;13.60;99.90
67897;DHT22;54698;48.428;9.964;2022-09-09T06:48:21;13.60;99.90
67897;DHT22;54698;48.428;9.964;2022-09-09T06:50:47;13.70;99.90
67897;DHT22;54698;48.428;9.964;2022-09-09T06:53:16;13.70;99.90
67897;DHT22;54698;48.428;9.964;2022-09-09T06:55:42;13.70;99.90
67897;DHT22;54698;48.428;9.964;2022-09-09T06:58:08;13.80;99.90
67897;DHT22;54698;48.428;9.964;2022-09-09T07:00:34;14.00;99.90
67897;DHT22;54698;48.428;9.964;2022-09-09T07:03:01;14.10;99.90
67897;DHT22;54698;48.428;9.964;2022-09-09T07:05:26;14.30;99.90
67897;DHT22;54698;48.428;9.964;2022-09-09T07:07:52;14.50;99.90
67897;DHT22;54698;48.428;9.964;2022-09-09T07:10:18;14.70;99.90
67897;DHT22;54698;48.428;9.964;2022-09-09T07:12:44;14.60;99.90
67897;DHT22;54698;48.428;9.964;2022-09-09T07:15:10;14.70;99.90
67897;DHT22;54698;48.428;9.964;2022-09-09T07:17:36;15.00;99.90
67897;DHT22;54698;48.428;9.964;2022-09-09T07:20:04;15.30;99.90
67897;DHT22;54698;48.428;9.964;2022-09-09T07:22:30;15.70;99.90
67897;DHT22;54698;48.428;9.964;2022-09-09T07:24:56;16.00;99.90
67897;DHT22;54698;48.428;9.964;2022-09-09T07:27:22;16.10;99.90
67897;DHT22;54698;48.428;9.964;2022-09-09T07:29:48;16.10;99.90
67897;DHT22;54698;48.428;9.964;2022-09-09T07:32:13;15.90;99.90
67897;DHT22;54698;48.428;9.964;2022-09-09T07:34:39;15.90;99.90
67897;DHT22;54698;48.428;9.964;2022-09-09T07:37:06;15.80;99.90
67897;DHT22;54698;48.428;9.964;2022-09-09T07:39:32;15.90;99.90
67897;DHT22;54698;48.428;9.964;2022-09-09T07:41:58;16.20;99.90
67897;DHT22;54698;48.428;9.964;2022-09-09T07:44:24;16.50;99.90
67897;DHT22;54698;48.428;9.964;2022-09-09T07:46:50;16.70;99.90
67897;DHT22;54698;48.428;9.964;2022-09-09T07:49:16;16.70;99.90
67897;DHT22;54698;48.428;9.964;2022-09-09T07:51:44;16.70;99.90
67897;DHT22;54698;48.428;9.964;2022-09-09T07:54:14;16.70;99.90
67897;DHT22;54698;48.428;9.964;2022-09-09T07:56:41;16.80;99.90
67897;DHT22;54698;48.428;9.964;2022-09-09T07:59:08;16.90;99.90
67897;DHT22;54698;48.428;9.964;2022-09-09T08:01:36;17.10;99.90
67897;DHT22;54698;48.428;9.964;2022-09-09T08:04:03;17.00;99.90
67897;DHT22;54698;48.428;9.964;2022-09-09T08:06:34;16.80;99.90
67897;DHT22;54698;48.428;9.964;2022-09-09T08:09:01;16.60;99.90
67897;DHT22;54698;48.428;9.964;2022-09-09T08:11:29;16.50;99.90
67897;DHT22;54698;48.428;9.964;2022-09-09T08:13:56;16.50;99.90
67897;DHT22;54698;48.428;9.964;2022-09-09T08:16:23;16.60;99.90
67897;DHT22;54698;48.428;9.964;2022-09-09T08:18:51;16.70;99.90
67897;DHT22;54698;48.428;9.964;2022-09-09T08:21:19;16.90;99.90
67897;DHT22;54698;48.428;9.964;2022-09-09T08:23:47;16.80;99.90
67897;DHT22;54698;48.428;9.964;2022-09-09T08:26:15;16.70;99.90
67897;DHT22;54698;48.428;9.964;2022-09-09T08:28:43;16.60;99.90
67897;DHT22;54698;48.428;9.964;2022-09-09T08:31:12;16.80;99.90
67897;DHT22;54698;48.428;9.964;2022-09-09T08:33:39;17.00;99.90
67897;DHT22;54698;48.428;9.964;2022-09-09T08:36:07;17.50;99.90
67897;DHT22;54698;48.428;9.964;2022-09-09T08:38:34;18.00;99.90
67897;DHT22;54698;48.428;9.964;2022-09-09T08:41:14;18.30;99.90
67897;DHT22;54698;48.428;9.964;2022-09-09T08:44:03;18.50;99.90
67897;DHT22;54698;48.428;9.964;2022-09-09T08:46:39;18.60;99.90
67897;DHT22;54698;48.428;9.964;2022-09-09T08:49:24;18.80;99.90
67897;DHT22;54698;48.428;9.964;2022-09-09T08:52:09;18.80;99.90
67897;DHT22;54698;48.428;9.964;2022-09-09T08:54:38;18.70;99.90
67897;DHT22;54698;48.428;9.964;2022-09-09T08:57:08;18.80;99.90
67897;DHT22;54698;48.428;9.964;2022-09-09T08:59:39;19.00;99.90
67897;DHT22;54698;48.428;9.964;2022-09-09T09:02:15;19.20;99.90
67897;DHT22;54698;48.428;9.964;2022-09-09T09:04:55;19.40;99.90
67897;DHT22;54698;48.428;9.964;2022-09-09T09:07:41;19.30;99.90
67897;DHT22;54698;48.428;9.964;2022-09-09T09:10:28;19.50;99.90
67897;DHT22;54698;48.428;9.964;2022-09-09T09:13:03;19.60;99.90
67897;DHT22;54698;48.428;9.964;2022-09-09T09:15:36;19.60;99.90
67897;DHT22;54698;48.428;9.964;2022-09-09T09:18:03;19.50;99.90
67897;DHT22;54698;48.428;9.964;2022-09-09T09:20:35;19.70;99.90
67897;DHT22;54698;48.428;9.964;2022-09-09T09:23:14;19.90;99.90
67897;DHT22;54698;48.428;9.964;2022-09-09T09:25:44;20.20;99.90
67897;DHT22;54698;48.428;9.964;2022-09-09T09:28:15;20.70;99.90
67897;DHT22;54698;48.428;9.964;2022-09-09T09:30:49;21.20;99.90
67897;DHT22;54698;48.428;9.964;2022-09-09T09:33:20;21.30;99.90
67897;DHT22;54698;48.428;9.964;2022-09-09T09:35:49;21.30;99.90
67897;DHT22;54698;48.428;9.964;2022-09-09T09:38:17;21.20;99.90
67897;DHT22;54698;48.428;9.964;2022-09-09T09:40:51;21.10;99.90
67897;DHT22;54698;48.428;9.964;2022-09-09T09:43:21;21.00;99.90
67897;DHT22;54698;48.428;9.964;2022-09-09T09:45:51;21.50;99.90
67897;DHT22;54698;48.428;9.964;2022-09-09T09:48:17;21.50;99.90
67897;DHT22;54698;48.428;9.964;2022-09-09T09:50:48;21.30;99.90
67897;DHT22;54698;48.428;9.964;2022-09-09T09:53:24;21.10;99.90
67897;DHT22;54698;48.428;9.964;2022-09-09T09:55:55;21.30;99.90
67897;DHT22;54698;48.428;9.964;2022-09-09T09:58:23;21.30;99.90
67897;DHT22;54698;48.428;9.964;2022-09-09T10:00:53;20.90;99.90
67897;DHT22;54698;48.428;9.964;2022-09-09T10:03:22;21.00;99.90
67897;DHT22;54698;48.428;9.964;2022-09-09T10:05:49;20.90;98.10
67897;DHT22;54698;48.428;9.964;2022-09-09T10:08:17;20.80;95.90
67897;DHT22;54698;48.428;9.964;2022-09-09T10:10:51;20.90;97.50
67897;DHT22;54698;48.428;9.964;2022-09-09T10:13:27;21.00;98.30
67897;DHT22;54698;48.428;9.964;2022-09-09T10:16:06;21.40;98.00
67897;DHT22;54698;48.428;9.964;2022-09-09T10:18:46;21.30;96.70
67897;DHT22;54698;48.428;9.964;2022-09-09T10:21:41;21.40;97.40
67897;DHT22;54698;48.428;9.964;2022-09-09T10:24:36;21.50;96.90
67897;DHT22;54698;48.428;9.964;2022-09-09T10:27:15;22.50;97.60
67897;DHT22;54698;48.428;9.964;2022-09-09T10:30:04;22.80;94.40
67897;DHT22;54698;48.428;9.964;2022-09-09T10:32:48;22.90;93.60
67897;DHT22;54698;48.428;9.964;2022-09-09T10:35:24;22.90;93.50
67897;DHT22;54698;48.428;9.964;2022-09-09T10:38:12;22.80;93.60
67897;DHT22;54698;48.428;9.964;2022-09-09T10:40:42;23.20;92.30
67897;DHT22;54698;48.428;9.964;2022-09-09T10:43:17;23.50;91.40
67897;DHT22;54698;48.428;9.964;2022-09-09T10:45:57;23.50;89.70
67897;DHT22;54698;48.428;9.964;2022-09-09T10:48:31;23.40;90.80
67897;DHT22;54698;48.428;9.964;2022-09-09T10:51:12;23.20;91.10
67897;DHT22;54698;48.428;9.964;2022-09-09T10:53:52;22.50;91.60
67897;DHT22;54698;48.428;9.964;2022-09-09T10:56:27;22.50;91.10
67897;DHT22;54698;48.428;9.964;2022-09-09T10:58:57;23.60;90.30
67897;DHT22;54698;48.428;9.964;2022-09-09T11:01:28;24.70;84.30
67897;DHT22;54698;48.428;9.964;2022-09-09T11:04:02;25.50;80.50
67897;DHT22;54698;48.428;9.964;2022-09-09T11:06:34;26.10;78.80
67897;DHT22;54698;48.428;9.964;2022-09-09T11:09:02;25.50;74.70
67897;DHT22;54698;48.428;9.964;2022-09-09T11:11:33;24.30;75.70
67897;DHT22;54698;48.428;9.964;2022-09-09T11:14:05;24.30;77.30
67897;DHT22;54698;48.428;9.964;2022-09-09T11:16:40;24.40;78.90
67897;DHT22;54698;48.428;9.964;2022-09-09T11:19:13;24.00;75.20
67897;DHT22;54698;48.428;9.964;2022-09-09T11:21:45;24.30;75.50
67897;DHT22;54698;48.428;9.964;2022-09-09T11:24:15;24.20;72.10
67897;DHT22;54698;48.428;9.964;2022-09-09T11:26:47;23.80;75.00
67897;DHT22;54698;48.428;9.964;2022-09-09T11:29:42;23.50;75.20
67897;DHT22;54698;48.428;9.964;2022-09-09T11:32:26;22.80;76.30
67897;DHT22;54698;48.428;9.964;2022-09-09T11:35:07;22.00;77.80
67897;DHT22;54698;48.428;9.964;2022-09-09T11:38:07;21.60;80.50
67897;DHT22;54698;48.428;9.964;2022-09-09T11:40:55;21.10;83.20
67897;DHT22;54698;48.428;9.964;2022-09-09T11:43:24;21.60;83.70
67897;DHT22;54698;48.428;9.964;2022-09-09T11:45:54;21.40;84.20
67897;DHT22;54698;48.428;9.964;2022-09-09T11:48:28;20.90;87.20
67897;DHT22;54698;48.428;9.964;2022-09-09T11:51:00;20.50;88.70
67897;DHT22;54698;48.428;9.964;2022-09-09T11:53:28;20.10;88.20
67897;DHT22;54698;48.428;9.964;2022-09-09T11:56:06;20.10;88.90
67897;DHT22;54698;48.428;9.964;2022-09-09T11:58:38;20.10;90.00
67897;DHT22;54698;48.428;9.964;2022-09-09T12:04:21;23.00;80.50
67897;DHT22;54698;48.428;9.964;2022-09-09T12:06:56;24.40;75.20
67897;DHT22;54698;48.428;9.964;2022-09-09T12:12:27;25.80;62.40
67897;DHT22;54698;48.428;9.964;2022-09-09T12:14:58;26.70;61.80
67897;DHT22;54698;48.428;9.964;2022-09-09T12:17:44;26.80;59.50
67897;DHT22;54698;48.428;9.964;2022-09-09T12:20:14;27.10;58.80
67897;DHT22;54698;48.428;9.964;2022-09-09T12:23:07;27.40;58.40
67897;DHT22;54698;48.428;9.964;2022-09-09T12:25:53;28.30;55.80
67897;DHT22;54698;48.428;9.964;2022-09-09T12:28:26;28.70;55.60
67897;DHT22;54698;48.428;9.964;2022-09-09T12:31:06;28.80;55.00
67897;DHT22;54698;48.428;9.964;2022-09-09T12:33:37;28.80;53.50
67897;DHT22;54698;48.428;9.964;2022-09-09T12:36:06;29.10;53.80
67897;DHT22;54698;48.428;9.964;2022-09-09T12:38:39;29.50;53.70
67897;DHT22;54698;48.428;9.964;2022-09-09T12:41:05;28.50;52.70
67897;DHT22;54698;48.428;9.964;2022-09-09T12:43:32;27.50;54.30
67897;DHT22;54698;48.428;9.964;2022-09-09T12:46:00;27.10;56.00
67897;DHT22;54698;48.428;9.964;2022-09-09T12:48:32;25.80;56.90
67897;DHT22;54698;48.428;9.964;2022-09-09T12:51:00;25.10;59.20
67897;DHT22;54698;48.428;9.964;2022-09-09T12:53:29;25.00;60.50
67897;DHT22;54698;48.428;9.964;2022-09-09T12:55:59;24.60;62.20
67897;DHT22;54698;48.428;9.964;2022-09-09T12:58:26;24.30;62.90
67897;DHT22;54698;48.428;9.964;2022-09-09T13:00:54;23.60;64.40
67897;DHT22;54698;48.428;9.964;2022-09-09T13:03:22;22.90;65.00
67897;DHT22;54698;48.428;9.964;2022-09-09T13:05:49;22.30;65.50
67897;DHT22;54698;48.428;9.964;2022-09-09T13:08:16;21.60;66.70
67897;DHT22;54698;48.428;9.964;2022-09-09T13:10:46;21.20;72.00
67897;DHT22;54698;48.428;9.964;2022-09-09T13:13:16;21.20;72.60
67897;DHT22;54698;48.428;9.964;2022-09-09T13:15:49;21.30;74.50
67897;DHT22;54698;48.428;9.964;2022-09-09T13:18:18;21.20;73.50
67897;DHT22;54698;48.428;9.964;2022-09-09T13:20:48;21.40;73.50
67897;DHT22;54698;48.428;9.964;2022-09-09T13:23:15;21.70;74.00
67897;DHT22;54698;48.428;9.964;2022-09-09T13:25:53;21.80;73.30
67897;DHT22;54698;48.428;9.964;2022-09-09T13:28:23;22.50;74.10
67897;DHT22;54698;48.428;9.964;2022-09-09T13:30:57;23.10;69.50
67897;DHT22;54698;48.428;9.964;2022-09-09T13:33:30;23.50;69.60
67897;DHT22;54698;48.428;9.964;2022-09-09T13:35:59;24.10;66.40
67897;DHT22;54698;48.428;9.964;2022-09-09T13:38:28;25.20;63.30
67897;DHT22;54698;48.428;9.964;2022-09-09T13:40:56;26.80;58.10
67897;DHT22;54698;48.428;9.964;2022-09-09T13:43:26;27.80;55.60
67897;DHT22;54698;48.428;9.964;2022-09-09T13:45:56;28.70;53.80
67897;DHT22;54698;48.428;9.964;2022-09-09T13:48:24;29.40;52.00
67897;DHT22;54698;48.428;9.964;2022-09-09T13:50:55;29.80;50.00
67897;DHT22;54698;48.428;9.964;2022-09-09T13:53:22;30.20;48.60
67897;DHT22;54698;48.428;9.964;2022-09-09T13:55:47;30.20;49.50
67897;DHT22;54698;48.428;9.964;2022-09-09T13:58:15;31.00;47.30
67897;DHT22;54698;48.428;9.964;2022-09-09T14:00:44;30.80;46.70
67897;DHT22;54698;48.428;9.964;2022-09-09T14:03:10;29.80;47.10
67897;DHT22;54698;48.428;9.964;2022-09-09T14:05:36;28.50;48.90
67897;DHT22;54698;48.428;9.964;2022-09-09T14:08:04;27.90;50.70
67897;DHT22;54698;48.428;9.964;2022-09-09T14:10:30;29.20;52.10
67897;DHT22;54698;48.428;9.964;2022-09-09T14:12:56;30.10;47.60
67897;DHT22;54698;48.428;9.964;2022-09-09T14:15:22;28.00;49.30
67897;DHT22;54698;48.428;9.964;2022-09-09T14:17:49;26.30;54.10
67897;DHT22;54698;48.428;9.964;2022-09-09T14:20:15;25.20;56.10
67897;DHT22;54698;48.428;9.964;2022-09-09T14:22:41;24.10;58.50
67897;DHT22;54698;48.428;9.964;2022-09-09T14:25:08;22.90;62.50
67897;DHT22;54698;48.428;9.964;2022-09-09T14:27:34;22.10;66.80
67897;DHT22;54698;48.428;9.964;2022-09-09T14:30:00;21.50;69.10
67897;DHT22;54698;48.428;9.964;2022-09-09T14:32:26;21.20;71.80
67897;DHT22;54698;48.428;9.964;2022-09-09T14:34:53;21.30;71.70
67897;DHT22;54698;48.428;9.964;2022-09-09T14:37:19;22.40;69.30
67897;DHT22;54698;48.428;9.964;2022-09-09T14:39:45;24.80;62.80
67897;DHT22;54698;48.428;9.964;2022-09-09T14:42:10;26.70;58.40
67897;DHT22;54698;48.428;9.964;2022-09-09T14:44:36;28.40;55.10
67897;DHT22;54698;48.428;9.964;2022-09-09T14:47:02;28.70;51.70
67897;DHT22;54698;48.428;9.964;2022-09-09T14:49:28;29.10;51.80
67897;DHT22;54698;48.428;9.964;2022-09-09T14:51:55;29.10;50.30
67897;DHT22;54698;48.428;9.964;2022-09-09T14:54:21;28.10;53.10
67897;DHT22;54698;48.428;9.964;2022-09-09T14:56:47;28.00;52.40
67897;DHT22;54698;48.428;9.964;2022-09-09T14:59:13;27.80;53.40
67897;DHT22;54698;48.428;9.964;2022-09-09T15:01:39;28.10;52.40
67897;DHT22;54698;48.428;9.964;2022-09-09T15:04:05;28.40;52.50
67897;DHT22;54698;48.428;9.964;2022-09-09T15:06:33;27.50;51.40
67897;DHT22;54698;48.428;9.964;2022-09-09T15:09:02;27.20;52.90
67897;DHT22;54698;48.428;9.964;2022-09-09T15:11:30;27.50;52.70
67897;DHT22;54698;48.428;9.964;2022-09-09T15:13:58;27.80;51.90
67897;DHT22;54698;48.428;9.964;2022-09-09T15:16:26;26.70;52.50
67897;DHT22;54698;48.428;9.964;2022-09-09T15:18:54;26.00;53.90
67897;DHT22;54698;48.428;9.964;2022-09-09T15:21:23;26.00;53.20
67897;DHT22;54698;48.428;9.964;2022-09-09T15:23:50;24.90;54.20
67897;DHT22;54698;48.428;9.964;2022-09-09T15:26:18;24.40;57.20
67897;DHT22;54698;48.428;9.964;2022-09-09T15:28:45;25.20;55.90
67897;DHT22;54698;48.428;9.964;2022-09-09T15:31:13;26.40;53.70
67897;DHT22;54698;48.428;9.964;2022-09-09T15:33:40;27.50;50.90
67897;DHT22;54698;48.428;9.964;2022-09-09T15:36:13;28.10;49.40
67897;DHT22;54698;48.428;9.964;2022-09-09T15:38:40;28.30;49.00
67897;DHT22;54698;48.428;9.964;2022-09-09T15:41:06;28.10;49.40
67897;DHT22;54698;48.428;9.964;2022-09-09T15:43:33;27.90;49.70
67897;DHT22;54698;48.428;9.964;2022-09-09T15:46:05;27.80;49.00
67897;DHT22;54698;48.428;9.964;2022-09-09T15:48:46;27.50;50.00
67897;DHT22;54698;48.428;9.964;2022-09-09T15:51:12;27.30;49.00
67897;DHT22;54698;48.428;9.964;2022-09-09T15:53:39;26.90;49.60
67897;DHT22;54698;48.428;9.964;2022-09-09T15:56:05;27.40;51.00
67897;DHT22;54698;48.428;9.964;2022-09-09T15:58:32;27.20;49.80